Amasa, MI (49903)

3:37 AM CDT on August 01, 2014 (GMT -0500)
Ford (KIMT) Elev 1181 ft | 45.82 °N, 88.11 °W | Change Station

Current weather conditions updated 1 hour ago

Overcast
Overcast
54 °F
Feels Like 54 °F
N
0
Wind Variable Wind from North

Today is forecast to be Cooler than yesterday.

Today
High -- | Low -- °F
--% Chance of Precip.
Yesterday
High -- | Low -- °F
Precip. -- in
5:35 AM 8:23 PM
Waxing Crescent, 25% visible
Pressure 30.00 in
Visibility 9.0 miles
Clouds Scattered Clouds 6000 ft
Overcast 7500 ft
Dew Point 52 °F
Humidity 93%
Rainfall 0.00 in
Snow Depth Not available.
UV 0 out of 12
Pollen 7.40 out of 12
Air Quality Not available.
Flu Activity Not available.
METAR KIMT 010654Z AUTO 00000KT 9SM SCT060 OVC075 12/11 A3000 RMK AO2 SLP159 T01220111 TSNO

More Conditions Fewer Conditions

Pressure 30.00 in
Visibility 9.0 miles
Clouds Scattered Clouds 6000 ft
Overcast 7500 ft
Dew Point 52 °F
Humidity 93%
Rainfall 0.00 in
Snow Depth Not available.
UV 0 out of 12
Pollen 7.40 out of 12
Air Quality Not available.
Flu Activity Not available.
METAR KIMT 010654Z AUTO 00000KT 9SM SCT060 OVC075 12/11 A3000 RMK AO2 SLP159 T01220111 TSNO

More Conditions Fewer Conditions

10-Day Weather Forecast

Almanac

Astronomy

Aug. 01, 2014 Rise Set
Actual Time 5:35 AM CDT 8:23 PM CDT
Civil Twilight 5:00 AM CDT 8:58 PM CDT
Nautical Twilight 4:16 AM CDT 9:42 PM CDT
Astronomical Twilight 3:24 AM CDT 10:34 PM CDT
Moon 11:20 AM CDT 10:45 PM CDT
Length of Visible Light 15h 57m
Length of Day
14h 48m
Tomorrow will be 2m 33s shorter.
Waxing Crescent, 25% of the Moon is Illuminated
Today
Waxing Crescent
Aug 3
First Quarter
Aug 10
Full
Aug 17
Last Quarter
Aug 25
New

Today's Extremes

State Highs State Lows

Community

WunderPhotos

Upload Photos

1,739,521 photos uploaded!

Nearby

Snow Depth

Station Depth Elevation
No new snow has been reported.

Earthquake Activity

City Distance Mag. Time & Date
No recent earthquake activity has been reported nearby.
Minimum magnitude displayed is 2.5.

Coastal Water Temperatures

Place Temperature
No Stations Reporting

Nearby Weather Stations

There are no personal weather stations in this area.